Impacts TAF Board
For situational awareness. Not to be used for flight planning purposes.
IDs:

KSLE - Salem Muni, OR, US

Issued at 0520 UTC 22 Oct 2021
Updated at 0712 UTC 22 Oct 2021
Potential Impact None Slight Moderate High
Time0656Z 22/08Z 22/09Z 22/10Z 22/11Z 22/12Z 22/13Z 22/14Z 22/15Z 22/16Z 22/17Z 22/18Z 22/19Z 22/20Z>>
Type OBS PRVL PRVL PRVL PRVL PRVL PRVL PRVL PRVL PRVL PRVL PRVL PRVL PRVL
VIS 10 >6 >6 >6 >6 >6 >6 >6 >6 >6 >6 >6 >6 >6
CIG 90 40 45 45 45 45 45 45 45 45 45 45 45 50
Cover OVC OVC BKN BKN BKN BKN BKN BKN BKN BKN BKN BKN BKN BKN
FltCat VFR VFR VFR VFR VFR VFR VFR VFR VFR VFR VFR VFR VFR VFR
WX -RA -RA -SHRA -SHRA -SHRA -SHRA -SHRA -SHRA -SHRA -SHRA -SHRA -SHRA -SHRA VCSH
WDir 160 160 190 190 190 190 190 190 190 190 190 190 190 200
WSpd 9 8 5 5 5 5 5 5 5 5 5 5 5 10
WGst -- -- -- -- -- -- -- -- -- -- -- -- -- --
Raw TAF
KSLE 220520Z 2206/2306 16008KT P6SM -RA SCT025 BKN040 OVC070
  FM220900 19005KT P6SM -SHRA BKN045 BKN060
  FM222000 20010KT P6SM VCSH SCT035 BKN050
  FM230200 12007KT P6SM -RA BKN035 OVC045


Raw METAR
KSLE 220656Z AUTO 16009KT 10SM -RA FEW055 SCT080 OVC090 13/11 A2983 RMK AO2 SLP100 P0004 T01280111
KSLE 220556Z AUTO 15008KT 10SM -RA FEW042 BKN075 OVC095 13/11 A2983 RMK AO2 SLP099 P0005 60062 T01280111 10150 20128 50008
KSLE 220456Z AUTO 16011KT 10SM -RA SCT015 BKN039 OVC075 13/12 A2983 RMK AO2 SLP102 P0009 T01330117

METAR Board
Radar Display
Forecast Discussion
For situational awareness. Not to be used for flight planning purposes.